createdAt,value
2023-04-21T00:02:35.787Z,11.10
2023-04-21T00:05:10.761Z,9.20
2023-04-21T00:07:43.641Z,9.60
2023-04-21T00:10:15.985Z,11.20
2023-04-21T00:12:48.391Z,13.40
2023-04-21T00:15:20.727Z,12.50
2023-04-21T00:17:53.154Z,10.50
2023-04-21T00:20:28.835Z,8.40
2023-04-21T00:23:01.653Z,9.20
2023-04-21T00:25:34.110Z,8.70
2023-04-21T00:28:06.391Z,8.40
2023-04-21T00:30:42.524Z,8.50
2023-04-21T00:33:14.869Z,8.30
2023-04-21T00:35:47.341Z,8.20
2023-04-21T00:38:19.715Z,7.70
2023-04-21T00:40:51.946Z,8.70
2023-04-21T00:43:25.826Z,8.90
2023-04-21T00:46:00.033Z,8.10
2023-04-21T00:48:32.384Z,8.40
2023-04-21T00:51:05.155Z,6.80
2023-04-21T00:53:37.535Z,7.40
2023-04-21T00:56:10.963Z,8.50
2023-04-21T00:58:46.643Z,7.00
2023-04-21T01:01:19.579Z,9.70
2023-04-21T01:03:52.102Z,11.20
2023-04-21T01:06:24.674Z,8.70
2023-04-21T01:08:58.089Z,7.00
2023-04-21T01:11:30.948Z,6.90
2023-04-21T01:14:03.334Z,6.20
2023-04-21T01:16:35.761Z,6.40
2023-04-21T01:19:08.191Z,6.20
2023-04-21T01:21:43.281Z,6.60
2023-04-21T01:24:15.860Z,6.60
2023-04-21T01:26:49.668Z,6.80
2023-04-21T01:29:22.005Z,6.20
2023-04-21T01:31:54.524Z,6.40
2023-04-21T01:34:26.785Z,6.70
2023-04-21T01:36:59.093Z,6.30
2023-04-21T01:39:31.814Z,6.20
2023-04-21T01:42:04.161Z,6.10
2023-04-21T01:44:36.969Z,7.40
2023-04-21T01:47:09.808Z,6.90
2023-04-21T01:49:42.144Z,6.10
2023-04-21T01:52:14.519Z,6.50
2023-04-21T01:54:46.878Z,6.90
2023-04-21T01:57:20.000Z,6.10
2023-04-21T01:59:52.415Z,6.50
2023-04-21T02:02:24.906Z,6.20
2023-04-21T02:04:57.679Z,6.10
2023-04-21T02:07:30.038Z,6.10
2023-04-21T02:10:02.430Z,5.80
2023-04-21T02:12:34.880Z,5.50
2023-04-21T02:15:09.155Z,6.40
2023-04-21T02:17:43.017Z,5.60
2023-04-21T02:20:15.767Z,5.90
2023-04-21T02:22:48.193Z,6.40
2023-04-21T02:25:21.055Z,5.90
2023-04-21T02:27:53.252Z,7.00
2023-04-21T02:30:25.625Z,7.30
2023-04-21T02:32:58.000Z,6.10
2023-04-21T02:35:30.468Z,6.80
2023-04-21T02:38:07.332Z,5.80
2023-04-21T02:40:39.913Z,5.60
2023-04-21T02:43:12.859Z,6.60
2023-04-21T02:45:45.252Z,5.90
2023-04-21T02:48:20.938Z,6.70
2023-04-21T02:50:54.247Z,5.90
2023-04-21T02:53:26.867Z,5.70
2023-04-21T02:55:59.288Z,6.20
2023-04-21T02:58:31.576Z,6.20
2023-04-21T03:01:04.300Z,6.10
2023-04-21T03:03:37.158Z,6.40
2023-04-21T03:06:09.941Z,6.40
2023-04-21T03:08:42.444Z,6.90
2023-04-21T03:11:14.860Z,6.90
2023-04-21T03:13:47.278Z,7.30
2023-04-21T03:16:19.913Z,6.50
2023-04-21T03:18:52.162Z,6.30
2023-04-21T03:21:24.517Z,7.00
2023-04-21T03:23:57.124Z,7.50
2023-04-21T03:26:29.474Z,7.50
2023-04-21T03:29:03.467Z,6.60
2023-04-21T03:31:35.968Z,6.00
2023-04-21T03:34:08.469Z,6.60
2023-04-21T03:36:41.116Z,6.50
2023-04-21T03:41:51.635Z,6.30
2023-04-21T03:44:26.300Z,6.80
2023-04-21T03:46:59.200Z,8.70
2023-04-21T03:49:31.873Z,10.80
2023-04-21T03:52:04.216Z,8.00
2023-04-21T03:54:36.549Z,7.10
2023-04-21T03:57:08.936Z,8.10
2023-04-21T03:59:41.256Z,7.30
2023-04-21T04:02:13.632Z,7.40
2023-04-21T04:04:46.268Z,7.50
2023-04-21T04:07:18.800Z,10.00
2023-04-21T04:09:51.127Z,11.10
2023-04-21T04:12:23.386Z,10.20
2023-04-21T04:14:55.679Z,9.40
2023-04-21T04:17:27.972Z,9.90
2023-04-21T04:20:00.392Z,13.00
2023-04-21T04:22:33.883Z,10.90
2023-04-21T04:25:07.281Z,12.00
2023-04-21T04:27:39.663Z,18.20
2023-04-21T04:30:14.871Z,22.60
2023-04-21T04:32:47.210Z,22.20
2023-04-21T04:35:19.814Z,24.70
2023-04-21T04:37:52.352Z,21.00
2023-04-21T04:40:24.830Z,20.80
2023-04-21T04:42:57.181Z,19.30
2023-04-21T04:45:33.290Z,22.40
2023-04-21T04:48:05.944Z,19.50
2023-04-21T04:50:38.187Z,15.80
2023-04-21T04:53:10.437Z,14.30
2023-04-21T04:55:42.903Z,15.20
2023-04-21T04:58:15.665Z,16.20
2023-04-21T05:00:48.196Z,11.40
2023-04-21T05:03:20.805Z,11.40
2023-04-21T05:05:54.374Z,12.60
2023-04-21T05:08:26.748Z,11.40
2023-04-21T05:10:59.141Z,9.70
2023-04-21T05:13:31.502Z,10.90
2023-04-21T05:16:04.132Z,11.10
2023-04-21T05:18:36.359Z,10.20
2023-04-21T05:21:08.864Z,8.50
2023-04-21T05:23:41.148Z,7.80
2023-04-21T05:26:13.499Z,7.90
2023-04-21T05:28:45.757Z,9.20
2023-04-21T05:31:18.177Z,8.70
2023-04-21T05:33:50.472Z,8.30
2023-04-21T05:36:25.001Z,7.50
2023-04-21T05:38:57.454Z,6.60
2023-04-21T05:41:29.781Z,8.30
2023-04-21T05:44:01.993Z,12.70
2023-04-21T05:46:35.216Z,7.70
2023-04-21T05:49:07.612Z,11.00
2023-04-21T05:51:39.864Z,8.10
2023-04-21T05:54:12.128Z,8.10
2023-04-21T05:56:44.575Z,8.10
2023-04-21T05:59:17.075Z,7.80
2023-04-21T06:01:49.388Z,10.90
2023-04-21T06:04:22.227Z,10.90
2023-04-21T06:06:55.016Z,6.90
2023-04-21T06:09:27.343Z,7.40
2023-04-21T06:11:59.775Z,12.90
2023-04-21T06:14:32.147Z,9.40
2023-04-21T06:17:04.601Z,6.90
2023-04-21T06:19:41.866Z,7.70
2023-04-21T06:22:14.305Z,10.20
2023-04-21T06:24:46.628Z,6.80
2023-04-21T06:27:19.227Z,5.20
2023-04-21T06:29:55.396Z,4.90
2023-04-21T06:32:28.013Z,6.40
2023-04-21T06:35:00.319Z,8.20
2023-04-21T06:37:32.676Z,9.00
2023-04-21T06:40:05.805Z,5.70
2023-04-21T06:42:38.187Z,5.80
2023-04-21T06:45:12.243Z,6.00
2023-04-21T06:47:44.556Z,4.80
2023-04-21T06:50:17.047Z,5.40
2023-04-21T06:52:49.468Z,7.80
2023-04-21T06:55:21.941Z,5.90
2023-04-21T06:57:54.184Z,7.30
2023-04-21T07:00:26.682Z,4.60
2023-04-21T07:02:59.009Z,4.20
2023-04-21T07:05:31.641Z,4.70
2023-04-21T07:08:03.983Z,4.40
2023-04-21T07:10:36.393Z,4.50
2023-04-21T07:13:10.192Z,4.00
2023-04-21T07:15:42.586Z,4.90
2023-04-21T07:18:14.866Z,6.20
2023-04-21T07:20:47.459Z,5.30
2023-04-21T07:23:20.202Z,7.80
2023-04-21T07:25:52.596Z,8.50
2023-04-21T07:28:24.982Z,8.60
2023-04-21T07:30:57.374Z,5.30
2023-04-21T07:33:30.034Z,5.20
2023-04-21T07:36:02.434Z,5.20
2023-04-21T07:38:35.185Z,4.20
2023-04-21T07:41:07.540Z,4.10
2023-04-21T07:43:40.187Z,4.60
2023-04-21T07:46:13.399Z,4.60
2023-04-21T07:48:46.471Z,8.50
2023-04-21T07:51:18.982Z,5.60
2023-04-21T07:53:51.755Z,7.50
2023-04-21T07:56:24.081Z,5.60
2023-04-21T07:58:56.365Z,7.20
2023-04-21T08:01:28.748Z,6.10
2023-04-21T08:04:01.235Z,6.10
2023-04-21T08:06:34.541Z,8.90
2023-04-21T08:09:06.998Z,6.70
2023-04-21T08:11:39.394Z,4.10
2023-04-21T08:14:12.019Z,4.50
2023-04-21T08:16:44.458Z,5.10
2023-04-21T08:19:16.971Z,4.80
2023-04-21T08:21:49.333Z,4.60
2023-04-21T08:24:21.880Z,4.60
2023-04-21T08:26:54.759Z,4.50
2023-04-21T08:29:27.127Z,4.50
2023-04-21T08:31:59.699Z,3.70
2023-04-21T08:34:32.251Z,3.60
2023-04-21T08:37:04.605Z,3.30
2023-04-21T08:39:37.008Z,3.70
2023-04-21T08:42:11.189Z,3.40
2023-04-21T08:44:44.165Z,3.70
2023-04-21T08:47:17.290Z,3.60
2023-04-21T08:49:51.448Z,4.30
2023-04-21T08:52:23.793Z,4.00
2023-04-21T08:54:56.426Z,4.00
2023-04-21T08:57:28.725Z,3.80
2023-04-21T09:00:00.978Z,3.30
2023-04-21T09:02:33.396Z,3.90
2023-04-21T09:05:06.649Z,3.20
2023-04-21T09:07:41.557Z,3.40
2023-04-21T09:12:51.406Z,4.10
2023-04-21T09:15:24.998Z,3.90
2023-04-21T09:17:58.915Z,3.40
2023-04-21T09:20:31.518Z,3.50
2023-04-21T09:23:07.549Z,3.80
2023-04-21T09:25:41.617Z,4.10
2023-04-21T09:28:15.279Z,3.90
2023-04-21T09:30:48.470Z,3.80
2023-04-21T09:33:30.709Z,3.60
2023-04-21T09:36:06.451Z,3.80
2023-04-21T09:38:38.743Z,3.70
2023-04-21T09:41:11.091Z,3.70
2023-04-21T09:43:43.361Z,4.20
2023-04-21T09:46:17.413Z,3.70
2023-04-21T09:48:50.201Z,3.90
2023-04-21T09:51:37.344Z,4.40
2023-04-21T09:54:29.197Z,3.90
2023-04-21T09:57:05.072Z,4.20
2023-04-21T09:59:38.902Z,4.10
2023-04-21T10:02:13.578Z,3.70
2023-04-21T10:04:46.981Z,4.00
2023-04-21T10:07:19.443Z,3.90
2023-04-21T10:09:54.819Z,3.90
2023-04-21T10:12:28.541Z,3.80
2023-04-21T10:15:04.758Z,3.70
2023-04-21T10:17:38.420Z,4.90
2023-04-21T10:20:16.654Z,4.60
2023-04-21T10:22:59.794Z,5.10
2023-04-21T10:25:33.526Z,5.00
2023-04-21T10:28:09.504Z,3.50
2023-04-21T10:30:42.018Z,3.50
2023-04-21T10:33:18.741Z,3.70
2023-04-21T10:36:05.540Z,3.90
2023-04-21T10:38:45.169Z,4.30
2023-04-21T10:41:31.651Z,3.50
2023-04-21T10:44:13.298Z,4.60
2023-04-21T10:46:49.979Z,10.60
2023-04-21T10:49:26.944Z,7.80
2023-04-21T10:52:12.335Z,4.50
2023-04-21T10:55:05.523Z,4.30
2023-04-21T10:57:38.105Z,4.40
2023-04-21T11:00:15.760Z,5.10
2023-04-21T11:02:56.655Z,6.10
2023-04-21T11:05:36.434Z,4.70
2023-04-21T11:08:14.727Z,4.40
2023-04-21T11:10:53.989Z,5.20
2023-04-21T11:13:27.668Z,5.00
2023-04-21T11:16:04.980Z,9.00
2023-04-21T11:18:40.572Z,11.70
2023-04-21T11:21:22.127Z,5.70
2023-04-21T11:23:59.140Z,4.30
2023-04-21T11:26:37.875Z,5.30
2023-04-21T11:29:11.788Z,6.10
2023-04-21T11:31:46.718Z,4.30
2023-04-21T11:34:21.674Z,4.60
2023-04-21T11:36:54.548Z,7.70
2023-04-21T11:39:26.842Z,4.00
2023-04-21T11:41:59.296Z,4.70
2023-04-21T11:44:37.001Z,5.00
2023-04-21T11:47:20.070Z,5.90
2023-04-21T11:49:56.575Z,5.20
2023-04-21T11:52:30.970Z,5.80
2023-04-21T11:55:06.376Z,4.20
2023-04-21T11:57:40.894Z,3.40
2023-04-21T12:02:46.262Z,5.20
2023-04-21T12:05:18.721Z,4.00
2023-04-21T12:07:52.367Z,3.70
2023-04-21T12:10:24.611Z,5.10
2023-04-21T12:12:58.818Z,3.40
2023-04-21T12:15:32.633Z,4.30
2023-04-21T12:18:05.186Z,5.10
2023-04-21T12:20:37.921Z,10.00
2023-04-21T12:23:10.353Z,4.20
2023-04-21T12:25:42.746Z,4.10
2023-04-21T12:28:16.937Z,3.60
2023-04-21T12:30:49.209Z,4.70
2023-04-21T12:33:21.784Z,3.90
2023-04-21T12:35:54.234Z,3.20
2023-04-21T12:38:26.636Z,3.20
2023-04-21T12:40:58.940Z,2.90
2023-04-21T12:43:32.678Z,3.40
2023-04-21T12:46:05.176Z,2.90
2023-04-21T12:48:37.704Z,3.00
2023-04-21T12:51:10.182Z,3.20
2023-04-21T12:53:42.543Z,4.00
2023-04-21T12:56:14.990Z,5.20
2023-04-21T12:58:48.429Z,9.50
2023-04-21T13:01:22.526Z,3.90
2023-04-21T13:03:55.149Z,3.00
2023-04-21T13:06:28.158Z,2.80
2023-04-21T13:09:00.607Z,2.90
2023-04-21T13:11:33.082Z,2.80
2023-04-21T13:14:05.457Z,2.40
2023-04-21T13:16:37.964Z,4.20
2023-04-21T13:19:10.418Z,3.10
2023-04-21T13:21:42.718Z,2.60
2023-04-21T13:24:15.145Z,2.60
2023-04-21T13:26:47.459Z,2.60
2023-04-21T13:29:19.795Z,2.40
2023-04-21T13:31:52.140Z,2.80
2023-04-21T13:34:24.973Z,2.80
2023-04-21T13:36:57.941Z,2.70
2023-04-21T13:39:30.575Z,2.90
2023-04-21T13:42:03.268Z,3.00
2023-04-21T13:44:35.929Z,2.70
2023-04-21T13:47:09.376Z,2.80
2023-04-21T13:49:41.725Z,2.90
2023-04-21T13:52:14.111Z,3.10
2023-04-21T13:54:46.519Z,2.70
2023-04-21T13:57:18.892Z,3.30
2023-04-21T13:59:51.759Z,3.00
2023-04-21T14:02:25.870Z,3.20
2023-04-21T14:04:58.569Z,3.30
2023-04-21T14:07:31.515Z,2.60
2023-04-21T14:10:04.456Z,3.30
2023-04-21T14:12:36.876Z,2.40
2023-04-21T14:15:12.728Z,2.70
2023-04-21T14:17:45.164Z,10.20
2023-04-21T14:20:17.608Z,2.60
2023-04-21T14:22:49.845Z,3.10
2023-04-21T14:25:22.287Z,3.00
2023-04-21T14:27:55.032Z,3.20
2023-04-21T14:30:27.244Z,2.70
2023-04-21T14:32:59.634Z,2.30
2023-04-21T14:35:32.040Z,2.40
2023-04-21T14:38:04.430Z,2.70
2023-04-21T14:40:36.736Z,2.10
2023-04-21T14:43:11.519Z,2.40
2023-04-21T14:45:44.032Z,2.70
2023-04-21T14:48:16.539Z,2.90
2023-04-21T14:50:49.354Z,3.30
2023-04-21T14:53:21.639Z,2.70
2023-04-21T14:55:54.773Z,3.90
2023-04-21T14:58:27.305Z,5.20
2023-04-21T15:00:59.703Z,4.30
2023-04-21T15:03:33.338Z,3.60
2023-04-21T15:06:06.584Z,3.40
2023-04-21T15:08:40.011Z,3.30
2023-04-21T15:11:12.463Z,4.00
2023-04-21T15:13:44.727Z,3.70
2023-04-21T15:16:17.088Z,4.00
2023-04-21T15:18:49.439Z,4.60
2023-04-21T15:21:23.039Z,20.80
2023-04-21T15:23:55.315Z,4.30
2023-04-21T15:26:30.420Z,6.30
2023-04-21T15:29:02.731Z,7.40
2023-04-21T15:31:35.412Z,5.70
2023-04-21T15:34:07.979Z,5.20
2023-04-21T15:36:40.388Z,4.80
2023-04-21T15:39:14.181Z,4.00
2023-04-21T15:41:46.852Z,3.90
2023-04-21T15:44:19.194Z,3.70
2023-04-21T15:46:51.802Z,5.00
2023-04-21T15:49:26.022Z,6.90
2023-04-21T15:54:29.652Z,4.30
2023-04-21T15:57:02.152Z,6.20
2023-04-21T15:59:34.522Z,4.20
2023-04-21T16:02:07.232Z,3.50
2023-04-21T16:04:40.233Z,4.10
2023-04-21T16:07:12.852Z,12.60
2023-04-21T16:09:45.288Z,9.80
2023-04-21T16:12:18.462Z,6.30
2023-04-21T16:14:57.606Z,3.60
2023-04-21T16:17:34.031Z,3.90
2023-04-21T16:20:07.190Z,4.30
2023-04-21T16:22:39.894Z,5.70
2023-04-21T16:25:14.456Z,5.10
2023-04-21T16:30:18.367Z,20.30
2023-04-21T16:32:50.831Z,11.40
2023-04-21T16:35:23.221Z,7.20
2023-04-21T16:37:56.240Z,5.70
2023-04-21T16:40:28.827Z,6.60
2023-04-21T16:43:01.175Z,9.00
2023-04-21T16:45:33.655Z,4.70
2023-04-21T16:48:06.233Z,6.10
2023-04-21T16:50:38.759Z,5.80
2023-04-21T16:53:11.111Z,6.10
2023-04-21T16:55:43.394Z,6.20
2023-04-21T16:58:15.771Z,5.10
2023-04-21T17:00:48.307Z,7.10
2023-04-21T17:03:20.881Z,5.60
2023-04-21T17:05:53.340Z,4.60
2023-04-21T17:08:25.791Z,5.30
2023-04-21T17:10:59.072Z,7.00
2023-04-21T17:13:31.528Z,15.30
2023-04-21T17:16:03.950Z,13.70
2023-04-21T17:18:36.745Z,12.40
2023-04-21T17:21:09.169Z,18.40
2023-04-21T17:23:41.342Z,41.80
2023-04-21T17:26:13.724Z,45.40
2023-04-21T17:28:46.089Z,46.10
2023-04-21T17:31:18.998Z,55.20
2023-04-21T17:33:52.769Z,46.40
2023-04-21T17:36:25.754Z,31.10
2023-04-21T17:38:58.822Z,32.30
2023-04-21T17:41:31.074Z,32.80
2023-04-21T17:44:03.333Z,27.90
2023-04-21T17:46:36.009Z,25.90
2023-04-21T17:49:09.064Z,43.20
2023-04-21T17:51:41.650Z,100.60
2023-04-21T17:54:14.048Z,128.10
2023-04-21T17:56:46.689Z,184.10
2023-04-21T17:59:19.076Z,120.90
2023-04-21T18:01:51.589Z,81.70
2023-04-21T18:04:25.350Z,54.70
2023-04-21T18:06:59.106Z,41.00
2023-04-21T18:09:31.696Z,13.70
2023-04-21T18:12:04.139Z,26.20
2023-04-21T18:14:37.222Z,21.00
2023-04-21T18:17:10.077Z,15.00
2023-04-21T18:19:42.611Z,18.80
2023-04-21T18:22:14.917Z,10.30
2023-04-21T18:24:47.319Z,13.00
2023-04-21T18:27:19.744Z,9.90
2023-04-21T18:29:52.133Z,9.70
2023-04-21T18:32:24.589Z,8.70
2023-04-21T18:34:57.072Z,9.20
2023-04-21T18:37:29.578Z,9.00
2023-04-21T18:40:02.099Z,8.60
2023-04-21T18:42:34.695Z,9.70
2023-04-21T18:45:08.555Z,8.30
2023-04-21T18:47:40.832Z,7.40
2023-04-21T18:50:13.563Z,6.50
2023-04-21T18:52:45.925Z,7.00
2023-04-21T18:55:18.518Z,7.30
2023-04-21T18:57:50.901Z,9.10
2023-04-21T19:00:23.800Z,10.40
2023-04-21T19:02:56.484Z,30.60
2023-04-21T19:05:31.110Z,22.90
2023-04-21T19:08:04.142Z,17.40
2023-04-21T19:10:37.986Z,15.60
2023-04-21T19:13:11.636Z,19.60
2023-04-21T19:15:44.032Z,19.90
2023-04-21T19:18:16.440Z,15.60
2023-04-21T19:20:48.677Z,13.60
2023-04-21T19:23:20.983Z,11.20
2023-04-21T19:25:55.195Z,16.20
2023-04-21T19:28:27.856Z,16.80
2023-04-21T19:31:00.289Z,12.90
2023-04-21T19:33:32.939Z,10.00
2023-04-21T19:36:06.575Z,9.70
2023-04-21T19:38:39.012Z,9.40
2023-04-21T19:41:11.384Z,11.20
2023-04-21T19:43:43.714Z,13.60
2023-04-21T19:46:16.428Z,24.80
2023-04-21T19:48:49.855Z,18.70
2023-04-21T19:51:23.877Z,18.40
2023-04-21T19:54:10.029Z,18.70
2023-04-21T19:56:44.804Z,26.40
2023-04-21T19:59:17.433Z,27.00
2023-04-21T20:01:49.967Z,19.40
2023-04-21T20:04:22.623Z,18.90
2023-04-21T20:06:55.197Z,25.90
2023-04-21T20:09:27.873Z,29.50
2023-04-21T20:12:00.281Z,17.60
2023-04-21T20:14:32.552Z,12.60
2023-04-21T20:17:05.052Z,12.70
2023-04-21T20:19:40.551Z,13.10
2023-04-21T20:22:12.894Z,13.80
2023-04-21T20:24:45.966Z,15.60
2023-04-21T20:27:19.126Z,12.70
2023-04-21T20:29:51.521Z,11.30
2023-04-21T20:32:23.898Z,15.30
2023-04-21T20:34:56.418Z,27.80
2023-04-21T20:37:29.759Z,25.50
2023-04-21T20:40:04.550Z,28.10
2023-04-21T20:42:37.535Z,50.40
2023-04-21T20:45:11.225Z,28.30
2023-04-21T20:47:43.570Z,26.00
2023-04-21T20:50:16.105Z,20.10
2023-04-21T20:52:50.257Z,18.10
2023-04-21T20:55:22.622Z,21.40
2023-04-21T20:57:55.041Z,18.30
2023-04-21T21:00:27.412Z,18.80
2023-04-21T21:03:00.224Z,16.30
2023-04-21T21:05:34.208Z,14.00
2023-04-21T21:08:06.833Z,16.20
2023-04-21T21:10:39.366Z,15.30
2023-04-21T21:13:11.677Z,18.10
2023-04-21T21:15:44.015Z,14.30
2023-04-21T21:18:16.373Z,15.50
2023-04-21T21:20:48.663Z,14.00
2023-04-21T21:23:21.212Z,20.20
2023-04-21T21:25:53.562Z,14.40
2023-04-21T21:28:26.127Z,13.30
2023-04-21T21:30:58.478Z,15.10
2023-04-21T21:33:30.838Z,13.10
2023-04-21T21:36:03.243Z,10.10
2023-04-21T21:38:35.620Z,15.80
2023-04-21T21:41:10.394Z,15.70
2023-04-21T21:43:42.899Z,15.50
2023-04-21T21:46:15.409Z,16.70
2023-04-21T21:48:47.823Z,16.70
2023-04-21T21:51:20.385Z,16.90
2023-04-21T21:53:52.878Z,19.50
2023-04-21T21:56:26.026Z,10.90
2023-04-21T21:58:58.594Z,11.20
2023-04-21T22:01:31.313Z,18.60
2023-04-21T22:04:03.776Z,20.70
2023-04-21T22:06:36.312Z,25.30
2023-04-21T22:09:09.105Z,15.00
2023-04-21T22:11:41.610Z,11.70
2023-04-21T22:14:22.616Z,12.40
2023-04-21T22:16:57.437Z,11.20
2023-04-21T22:19:31.424Z,9.30
2023-04-21T22:22:03.935Z,11.30
2023-04-21T22:24:36.293Z,9.50
2023-04-21T22:27:08.608Z,10.00
2023-04-21T22:29:41.166Z,9.50
2023-04-21T22:32:13.787Z,8.50
2023-04-21T22:34:46.224Z,8.20
2023-04-21T22:37:18.527Z,8.80
2023-04-21T22:39:50.790Z,8.60
2023-04-21T22:42:23.143Z,9.10
2023-04-21T22:44:55.437Z,9.60
2023-04-21T22:47:27.789Z,9.70
2023-04-21T22:50:00.324Z,8.50
2023-04-21T22:52:33.160Z,8.80
2023-04-21T22:55:06.456Z,9.20
2023-04-21T22:57:39.176Z,7.70
2023-04-21T23:00:12.640Z,8.60
2023-04-21T23:02:45.077Z,8.30
2023-04-21T23:05:17.481Z,8.90
2023-04-21T23:07:49.726Z,8.40
2023-04-21T23:10:22.380Z,8.30
2023-04-21T23:12:54.789Z,7.60
2023-04-21T23:15:27.785Z,8.90
2023-04-21T23:18:00.140Z,8.80
2023-04-21T23:20:32.577Z,10.70
2023-04-21T23:23:04.935Z,9.30
2023-04-21T23:25:37.367Z,8.20
2023-04-21T23:28:09.753Z,7.50
2023-04-21T23:30:42.085Z,7.80
2023-04-21T23:33:14.529Z,8.50
2023-04-21T23:35:47.230Z,8.70
2023-04-21T23:38:19.495Z,7.90
2023-04-21T23:40:51.856Z,7.00
2023-04-21T23:43:24.246Z,7.50
2023-04-21T23:45:57.064Z,7.40
2023-04-21T23:48:29.268Z,7.60
2023-04-21T23:51:01.950Z,7.70
2023-04-21T23:53:34.276Z,7.70
2023-04-21T23:56:06.822Z,8.30
2023-04-21T23:58:39.062Z,12.70
